sensor_id;sensor_type;location;lat;lon;timestamp;temperature;humidity
69382;DHT22;56560;50.692;12.844;2022-11-25T00:00:00;3.50;92.80
69382;DHT22;56560;50.692;12.844;2022-11-25T00:02:26;3.40;92.70
69382;DHT22;56560;50.692;12.844;2022-11-25T00:04:51;3.20;93.00
69382;DHT22;56560;50.692;12.844;2022-11-25T00:07:17;3.10;93.10
69382;DHT22;56560;50.692;12.844;2022-11-25T00:09:43;3.00;93.20
69382;DHT22;56560;50.692;12.844;2022-11-25T00:12:08;2.90;93.40
69382;DHT22;56560;50.692;12.844;2022-11-25T00:14:34;2.80;93.80
69382;DHT22;56560;50.692;12.844;2022-11-25T00:16:59;2.70;94.10
69382;DHT22;56560;50.692;12.844;2022-11-25T00:19:25;2.70;94.40
69382;DHT22;56560;50.692;12.844;2022-11-25T00:21:50;2.70;94.40
69382;DHT22;56560;50.692;12.844;2022-11-25T00:24:16;2.60;94.20
69382;DHT22;56560;50.692;12.844;2022-11-25T00:26:42;2.70;94.30
69382;DHT22;56560;50.692;12.844;2022-11-25T00:29:10;2.70;94.10
69382;DHT22;56560;50.692;12.844;2022-11-25T00:31:38;2.70;93.90
69382;DHT22;56560;50.692;12.844;2022-11-25T00:34:04;2.70;93.40
69382;DHT22;56560;50.692;12.844;2022-11-25T00:36:36;2.70;93.40
69382;DHT22;56560;50.692;12.844;2022-11-25T00:39:11;2.70;93.90
69382;DHT22;56560;50.692;12.844;2022-11-25T00:41:37;2.80;94.40
69382;DHT22;56560;50.692;12.844;2022-11-25T00:44:21;2.90;94.60
69382;DHT22;56560;50.692;12.844;2022-11-25T00:47:16;3.00;93.90
69382;DHT22;56560;50.692;12.844;2022-11-25T00:49:49;3.00;92.80
69382;DHT22;56560;50.692;12.844;2022-11-25T00:52:17;3.00;93.00
69382;DHT22;56560;50.692;12.844;2022-11-25T00:54:43;3.00;93.40
69382;DHT22;56560;50.692;12.844;2022-11-25T00:57:10;3.10;93.70
69382;DHT22;56560;50.692;12.844;2022-11-25T00:59:36;3.10;92.60
69382;DHT22;56560;50.692;12.844;2022-11-25T01:02:01;3.00;93.20
69382;DHT22;56560;50.692;12.844;2022-11-25T01:04:27;3.00;93.90
69382;DHT22;56560;50.692;12.844;2022-11-25T01:06:53;3.10;93.60
69382;DHT22;56560;50.692;12.844;2022-11-25T01:09:21;3.10;94.00
69382;DHT22;56560;50.692;12.844;2022-11-25T01:11:49;3.10;94.30
69382;DHT22;56560;50.692;12.844;2022-11-25T01:14:15;3.20;94.10
69382;DHT22;56560;50.692;12.844;2022-11-25T01:16:41;3.20;94.10
69382;DHT22;56560;50.692;12.844;2022-11-25T01:19:07;3.20;93.40
69382;DHT22;56560;50.692;12.844;2022-11-25T01:21:33;3.20;93.20
69382;DHT22;56560;50.692;12.844;2022-11-25T01:24:00;3.20;92.80
69382;DHT22;56560;50.692;12.844;2022-11-25T01:26:27;3.10;92.30
69382;DHT22;56560;50.692;12.844;2022-11-25T01:28:56;3.00;92.60
69382;DHT22;56560;50.692;12.844;2022-11-25T01:31:24;2.90;93.30
69382;DHT22;56560;50.692;12.844;2022-11-25T01:33:56;2.80;93.50
69382;DHT22;56560;50.692;12.844;2022-11-25T01:36:23;2.80;93.60
69382;DHT22;56560;50.692;12.844;2022-11-25T01:38:54;2.70;93.70
69382;DHT22;56560;50.692;12.844;2022-11-25T01:41:21;2.60;93.60
69382;DHT22;56560;50.692;12.844;2022-11-25T01:44:06;2.50;93.70
69382;DHT22;56560;50.692;12.844;2022-11-25T01:54:39;2.20;94.60
69382;DHT22;56560;50.692;12.844;2022-11-25T01:57:14;2.20;94.60
69382;DHT22;56560;50.692;12.844;2022-11-25T01:59:46;2.10;94.70
69382;DHT22;56560;50.692;12.844;2022-11-25T02:02:13;2.00;94.70
69382;DHT22;56560;50.692;12.844;2022-11-25T02:04:40;1.90;94.90
69382;DHT22;56560;50.692;12.844;2022-11-25T02:07:12;1.90;94.90
69382;DHT22;56560;50.692;12.844;2022-11-25T02:09:41;1.80;95.20
69382;DHT22;56560;50.692;12.844;2022-11-25T02:12:08;1.70;95.30
69382;DHT22;56560;50.692;12.844;2022-11-25T02:14:34;1.70;95.60
69382;DHT22;56560;50.692;12.844;2022-11-25T02:17:00;1.70;95.70
69382;DHT22;56560;50.692;12.844;2022-11-25T02:25:34;1.50;95.90
69382;DHT22;56560;50.692;12.844;2022-11-25T02:28:04;1.50;95.90
69382;DHT22;56560;50.692;12.844;2022-11-25T02:30:32;1.50;95.90
69382;DHT22;56560;50.692;12.844;2022-11-25T02:32:58;1.50;95.90
69382;DHT22;56560;50.692;12.844;2022-11-25T02:35:34;1.40;96.30
69382;DHT22;56560;50.692;12.844;2022-11-25T02:43:16;1.40;97.00
69382;DHT22;56560;50.692;12.844;2022-11-25T02:45:54;1.40;97.10
69382;DHT22;56560;50.692;12.844;2022-11-25T02:48:21;1.40;97.10
69382;DHT22;56560;50.692;12.844;2022-11-25T02:50:47;1.40;97.40
69382;DHT22;56560;50.692;12.844;2022-11-25T02:53:13;1.40;97.60
69382;DHT22;56560;50.692;12.844;2022-11-25T02:55:38;1.40;97.40
69382;DHT22;56560;50.692;12.844;2022-11-25T02:58:04;1.40;96.90
69382;DHT22;56560;50.692;12.844;2022-11-25T03:00:29;1.30;96.30
69382;DHT22;56560;50.692;12.844;2022-11-25T03:02:55;1.30;96.20
69382;DHT22;56560;50.692;12.844;2022-11-25T03:05:21;1.20;96.60
69382;DHT22;56560;50.692;12.844;2022-11-25T03:07:47;1.20;96.70
69382;DHT22;56560;50.692;12.844;2022-11-25T03:10:13;1.20;97.00
69382;DHT22;56560;50.692;12.844;2022-11-25T03:12:38;1.20;97.20
69382;DHT22;56560;50.692;12.844;2022-11-25T03:15:04;1.20;97.40
69382;DHT22;56560;50.692;12.844;2022-11-25T03:17:30;1.20;97.20
69382;DHT22;56560;50.692;12.844;2022-11-25T03:19:56;1.20;97.00
69382;DHT22;56560;50.692;12.844;2022-11-25T03:22:21;1.20;97.00
69382;DHT22;56560;50.692;12.844;2022-11-25T03:24:47;1.20;96.70
69382;DHT22;56560;50.692;12.844;2022-11-25T03:27:13;1.20;96.20
69382;DHT22;56560;50.692;12.844;2022-11-25T03:29:38;1.10;95.90
69382;DHT22;56560;50.692;12.844;2022-11-25T03:32:04;1.10;95.70
69382;DHT22;56560;50.692;12.844;2022-11-25T03:34:30;1.00;95.40
69382;DHT22;56560;50.692;12.844;2022-11-25T03:36:56;1.00;95.30
69382;DHT22;56560;50.692;12.844;2022-11-25T03:39:21;0.90;95.30
69382;DHT22;56560;50.692;12.844;2022-11-25T03:41:48;0.90;95.40
69382;DHT22;56560;50.692;12.844;2022-11-25T03:44:13;0.80;95.70
69382;DHT22;56560;50.692;12.844;2022-11-25T03:46:39;0.80;95.60
69382;DHT22;56560;50.692;12.844;2022-11-25T03:49:05;0.80;95.60
69382;DHT22;56560;50.692;12.844;2022-11-25T03:51:30;0.70;95.30
69382;DHT22;56560;50.692;12.844;2022-11-25T03:53:56;0.70;95.10
69382;DHT22;56560;50.692;12.844;2022-11-25T03:56:22;0.60;95.30
69382;DHT22;56560;50.692;12.844;2022-11-25T03:58:47;0.60;95.30
69382;DHT22;56560;50.692;12.844;2022-11-25T04:01:13;0.60;95.00
69382;DHT22;56560;50.692;12.844;2022-11-25T04:03:38;0.60;94.80
69382;DHT22;56560;50.692;12.844;2022-11-25T04:06:04;0.50;94.90
69382;DHT22;56560;50.692;12.844;2022-11-25T04:08:30;0.40;95.00
69382;DHT22;56560;50.692;12.844;2022-11-25T04:10:55;0.40;95.10
69382;DHT22;56560;50.692;12.844;2022-11-25T04:13:21;0.40;95.20
69382;DHT22;56560;50.692;12.844;2022-11-25T04:15:48;0.40;95.10
69382;DHT22;56560;50.692;12.844;2022-11-25T04:18:15;0.40;94.90
69382;DHT22;56560;50.692;12.844;2022-11-25T04:20:41;0.30;94.90
69382;DHT22;56560;50.692;12.844;2022-11-25T04:23:07;0.30;95.00
69382;DHT22;56560;50.692;12.844;2022-11-25T04:25:34;0.30;94.90
69382;DHT22;56560;50.692;12.844;2022-11-25T04:28:00;0.30;95.20
69382;DHT22;56560;50.692;12.844;2022-11-25T04:30:26;0.20;95.30
69382;DHT22;56560;50.692;12.844;2022-11-25T04:32:52;0.20;95.20
69382;DHT22;56560;50.692;12.844;2022-11-25T04:35:18;0.20;95.30
69382;DHT22;56560;50.692;12.844;2022-11-25T04:37:43;0.20;95.50
69382;DHT22;56560;50.692;12.844;2022-11-25T04:40:09;0.20;95.70
69382;DHT22;56560;50.692;12.844;2022-11-25T04:42:36;0.20;96.00
69382;DHT22;56560;50.692;12.844;2022-11-25T04:45:12;0.20;96.00
69382;DHT22;56560;50.692;12.844;2022-11-25T04:47:39;0.20;96.40
69382;DHT22;56560;50.692;12.844;2022-11-25T04:50:08;0.30;96.20
69382;DHT22;56560;50.692;12.844;2022-11-25T04:52:34;0.30;96.00
69382;DHT22;56560;50.692;12.844;2022-11-25T04:55:00;0.20;96.00
69382;DHT22;56560;50.692;12.844;2022-11-25T04:57:26;0.30;96.30
69382;DHT22;56560;50.692;12.844;2022-11-25T04:59:51;0.40;96.50
69382;DHT22;56560;50.692;12.844;2022-11-25T05:02:20;0.40;96.20
69382;DHT22;56560;50.692;12.844;2022-11-25T05:04:47;0.40;95.90
69382;DHT22;56560;50.692;12.844;2022-11-25T05:07:15;0.40;95.80
69382;DHT22;56560;50.692;12.844;2022-11-25T05:09:41;0.30;95.60
69382;DHT22;56560;50.692;12.844;2022-11-25T05:12:09;0.30;95.80
69382;DHT22;56560;50.692;12.844;2022-11-25T05:14:35;0.30;95.30
69382;DHT22;56560;50.692;12.844;2022-11-25T05:17:02;0.20;95.30
69382;DHT22;56560;50.692;12.844;2022-11-25T05:19:28;0.20;95.30
69382;DHT22;56560;50.692;12.844;2022-11-25T05:21:54;0.10;95.10
69382;DHT22;56560;50.692;12.844;2022-11-25T05:24:19;0.10;95.90
69382;DHT22;56560;50.692;12.844;2022-11-25T05:26:45;0.10;95.90
69382;DHT22;56560;50.692;12.844;2022-11-25T05:29:11;0.10;96.00
69382;DHT22;56560;50.692;12.844;2022-11-25T05:31:37;0.10;95.40
69382;DHT22;56560;50.692;12.844;2022-11-25T05:34:03;0.10;95.80
69382;DHT22;56560;50.692;12.844;2022-11-25T05:36:29;0.10;95.50
69382;DHT22;56560;50.692;12.844;2022-11-25T05:38:56;0.10;95.90
69382;DHT22;56560;50.692;12.844;2022-11-25T05:41:22;0.10;95.50
69382;DHT22;56560;50.692;12.844;2022-11-25T05:43:48;0.10;95.60
69382;DHT22;56560;50.692;12.844;2022-11-25T05:46:14;0.10;95.20
69382;DHT22;56560;50.692;12.844;2022-11-25T05:48:39;0.10;95.20
69382;DHT22;56560;50.692;12.844;2022-11-25T05:51:05;0.00;95.10
69382;DHT22;56560;50.692;12.844;2022-11-25T05:53:31;0.00;94.90
69382;DHT22;56560;50.692;12.844;2022-11-25T05:55:59;0.00;95.10
69382;DHT22;56560;50.692;12.844;2022-11-25T05:58:25;-0.10;94.90
69382;DHT22;56560;50.692;12.844;2022-11-25T06:00:52;-0.10;95.00
69382;DHT22;56560;50.692;12.844;2022-11-25T06:03:18;-0.10;95.10
69382;DHT22;56560;50.692;12.844;2022-11-25T06:05:43;-0.10;94.70
69382;DHT22;56560;50.692;12.844;2022-11-25T06:08:09;-0.20;95.00
69382;DHT22;56560;50.692;12.844;2022-11-25T06:10:39;-0.20;95.00
69382;DHT22;56560;50.692;12.844;2022-11-25T06:13:06;-0.20;95.20
69382;DHT22;56560;50.692;12.844;2022-11-25T06:15:31;-0.20;95.20
69382;DHT22;56560;50.692;12.844;2022-11-25T06:17:57;-0.20;95.40
69382;DHT22;56560;50.692;12.844;2022-11-25T06:20:22;-0.10;95.30
69382;DHT22;56560;50.692;12.844;2022-11-25T06:22:48;-0.20;95.40
69382;DHT22;56560;50.692;12.844;2022-11-25T06:25:14;-0.20;95.30
69382;DHT22;56560;50.692;12.844;2022-11-25T06:27:39;-0.20;95.10
69382;DHT22;56560;50.692;12.844;2022-11-25T06:30:06;-0.20;94.70
69382;DHT22;56560;50.692;12.844;2022-11-25T06:32:32;-0.30;95.00
69382;DHT22;56560;50.692;12.844;2022-11-25T06:34:57;-0.20;95.10
69382;DHT22;56560;50.692;12.844;2022-11-25T06:37:23;-0.30;94.90
69382;DHT22;56560;50.692;12.844;2022-11-25T06:39:48;-0.30;94.60
69382;DHT22;56560;50.692;12.844;2022-11-25T06:42:14;-0.30;94.60
69382;DHT22;56560;50.692;12.844;2022-11-25T06:44:40;-0.40;94.20
69382;DHT22;56560;50.692;12.844;2022-11-25T06:47:05;-0.40;94.60
69382;DHT22;56560;50.692;12.844;2022-11-25T06:49:31;-0.40;94.70
69382;DHT22;56560;50.692;12.844;2022-11-25T06:51:57;-0.50;94.70
69382;DHT22;56560;50.692;12.844;2022-11-25T06:54:23;-0.40;95.10
69382;DHT22;56560;50.692;12.844;2022-11-25T06:56:48;-0.40;95.10
69382;DHT22;56560;50.692;12.844;2022-11-25T06:59:18;-0.40;95.20
69382;DHT22;56560;50.692;12.844;2022-11-25T07:01:45;-0.40;95.40
69382;DHT22;56560;50.692;12.844;2022-11-25T07:04:11;-0.30;95.60
69382;DHT22;56560;50.692;12.844;2022-11-25T07:06:36;-0.30;95.80
69382;DHT22;56560;50.692;12.844;2022-11-25T07:09:03;-0.20;95.90
69382;DHT22;56560;50.692;12.844;2022-11-25T07:11:34;-0.10;95.80
69382;DHT22;56560;50.692;12.844;2022-11-25T07:14:05;0.00;95.40
69382;DHT22;56560;50.692;12.844;2022-11-25T07:16:32;0.10;94.90
69382;DHT22;56560;50.692;12.844;2022-11-25T07:18:59;0.10;94.40
69382;DHT22;56560;50.692;12.844;2022-11-25T07:21:29;0.10;94.20
69382;DHT22;56560;50.692;12.844;2022-11-25T07:23:58;0.10;93.80
69382;DHT22;56560;50.692;12.844;2022-11-25T07:26:27;0.10;93.20
69382;DHT22;56560;50.692;12.844;2022-11-25T07:28:54;0.10;94.00
69382;DHT22;56560;50.692;12.844;2022-11-25T07:31:30;0.20;93.60
69382;DHT22;56560;50.692;12.844;2022-11-25T07:33:58;0.20;93.40
69382;DHT22;56560;50.692;12.844;2022-11-25T07:36:26;0.20;92.90
69382;DHT22;56560;50.692;12.844;2022-11-25T07:38:52;0.20;92.40
69382;DHT22;56560;50.692;12.844;2022-11-25T07:41:20;0.20;92.50
69382;DHT22;56560;50.692;12.844;2022-11-25T07:43:48;0.20;92.70
69382;DHT22;56560;50.692;12.844;2022-11-25T07:46:20;0.30;92.70
69382;DHT22;56560;50.692;12.844;2022-11-25T07:48:46;0.30;92.40
69382;DHT22;56560;50.692;12.844;2022-11-25T07:51:21;0.40;93.10
69382;DHT22;56560;50.692;12.844;2022-11-25T07:53:48;0.70;93.40
69382;DHT22;56560;50.692;12.844;2022-11-25T07:56:15;0.90;93.20
69382;DHT22;56560;50.692;12.844;2022-11-25T07:58:41;1.00;91.80
69382;DHT22;56560;50.692;12.844;2022-11-25T08:01:09;1.00;91.50
69382;DHT22;56560;50.692;12.844;2022-11-25T08:03:36;1.10;92.60
69382;DHT22;56560;50.692;12.844;2022-11-25T08:06:10;1.20;92.90
69382;DHT22;56560;50.692;12.844;2022-11-25T08:08:37;1.30;93.90
69382;DHT22;56560;50.692;12.844;2022-11-25T08:11:15;1.40;93.80
69382;DHT22;56560;50.692;12.844;2022-11-25T08:13:41;1.50;93.80
69382;DHT22;56560;50.692;12.844;2022-11-25T08:16:09;1.70;93.80
69382;DHT22;56560;50.692;12.844;2022-11-25T08:18:35;1.80;94.20
69382;DHT22;56560;50.692;12.844;2022-11-25T08:21:02;2.00;93.80
69382;DHT22;56560;50.692;12.844;2022-11-25T08:23:30;2.10;94.10
69382;DHT22;56560;50.692;12.844;2022-11-25T08:25:56;2.30;93.20
69382;DHT22;56560;50.692;12.844;2022-11-25T08:28:22;2.40;93.20
69382;DHT22;56560;50.692;12.844;2022-11-25T08:30:48;2.60;93.00
69382;DHT22;56560;50.692;12.844;2022-11-25T08:33:14;2.70;92.50
69382;DHT22;56560;50.692;12.844;2022-11-25T08:35:40;2.80;92.20
69382;DHT22;56560;50.692;12.844;2022-11-25T08:38:08;2.90;92.00
69382;DHT22;56560;50.692;12.844;2022-11-25T08:40:35;3.00;91.50
69382;DHT22;56560;50.692;12.844;2022-11-25T08:43:02;3.10;91.70
69382;DHT22;56560;50.692;12.844;2022-11-25T08:45:29;3.20;91.10
69382;DHT22;56560;50.692;12.844;2022-11-25T08:47:55;3.40;90.80
69382;DHT22;56560;50.692;12.844;2022-11-25T08:50:22;3.50;90.10
69382;DHT22;56560;50.692;12.844;2022-11-25T08:52:50;3.70;89.80
69382;DHT22;56560;50.692;12.844;2022-11-25T08:55:15;3.80;89.30
69382;DHT22;56560;50.692;12.844;2022-11-25T08:57:41;3.90;88.90
69382;DHT22;56560;50.692;12.844;2022-11-25T09:00:07;4.10;88.60
69382;DHT22;56560;50.692;12.844;2022-11-25T09:02:33;4.10;88.10
69382;DHT22;56560;50.692;12.844;2022-11-25T09:04:59;4.30;87.80
69382;DHT22;56560;50.692;12.844;2022-11-25T09:07:26;4.40;87.40
69382;DHT22;56560;50.692;12.844;2022-11-25T09:09:51;4.50;87.20
69382;DHT22;56560;50.692;12.844;2022-11-25T09:12:17;4.70;87.40
69382;DHT22;56560;50.692;12.844;2022-11-25T09:14:43;4.80;86.10
69382;DHT22;56560;50.692;12.844;2022-11-25T09:17:10;4.80;86.80
69382;DHT22;56560;50.692;12.844;2022-11-25T09:19:36;4.90;85.80
69382;DHT22;56560;50.692;12.844;2022-11-25T09:22:02;5.00;86.40
69382;DHT22;56560;50.692;12.844;2022-11-25T09:24:28;5.10;85.60
69382;DHT22;56560;50.692;12.844;2022-11-25T09:26:53;5.20;85.50
69382;DHT22;56560;50.692;12.844;2022-11-25T09:29:19;5.20;85.30
69382;DHT22;56560;50.692;12.844;2022-11-25T09:31:45;5.30;84.80
69382;DHT22;56560;50.692;12.844;2022-11-25T09:34:11;5.40;85.10
69382;DHT22;56560;50.692;12.844;2022-11-25T09:36:37;5.50;84.20
69382;DHT22;56560;50.692;12.844;2022-11-25T09:39:03;5.60;84.00
69382;DHT22;56560;50.692;12.844;2022-11-25T09:50:02;5.90;83.10
69382;DHT22;56560;50.692;12.844;2022-11-25T09:52:39;6.00;82.80
69382;DHT22;56560;50.692;12.844;2022-11-25T09:55:15;6.10;82.50
69382;DHT22;56560;50.692;12.844;2022-11-25T10:00:41;6.30;82.10
69382;DHT22;56560;50.692;12.844;2022-11-25T10:08:22;6.80;80.60
69382;DHT22;56560;50.692;12.844;2022-11-25T10:10:54;6.90;79.70
69382;DHT22;56560;50.692;12.844;2022-11-25T10:13:23;7.00;79.10
69382;DHT22;56560;50.692;12.844;2022-11-25T10:15:53;7.10;79.00
69382;DHT22;56560;50.692;12.844;2022-11-25T10:18:38;7.20;78.30
69382;DHT22;56560;50.692;12.844;2022-11-25T10:21:05;7.40;77.20
69382;DHT22;56560;50.692;12.844;2022-11-25T10:23:33;7.50;77.70
69382;DHT22;56560;50.692;12.844;2022-11-25T10:26:14;7.70;76.70
69382;DHT22;56560;50.692;12.844;2022-11-25T10:28:50;7.80;77.20
69382;DHT22;56560;50.692;12.844;2022-11-25T10:31:28;7.90;76.70
69382;DHT22;56560;50.692;12.844;2022-11-25T10:33:57;8.00;75.80
69382;DHT22;56560;50.692;12.844;2022-11-25T10:36:31;8.00;76.40
69382;DHT22;56560;50.692;12.844;2022-11-25T10:41:30;8.50;75.70
69382;DHT22;56560;50.692;12.844;2022-11-25T10:43:56;8.70;73.10
69382;DHT22;56560;50.692;12.844;2022-11-25T10:49:13;8.80;71.00
69382;DHT22;56560;50.692;12.844;2022-11-25T10:51:46;8.90;72.00
69382;DHT22;56560;50.692;12.844;2022-11-25T10:54:26;8.90;71.90
69382;DHT22;56560;50.692;12.844;2022-11-25T10:56:56;8.90;71.10
69382;DHT22;56560;50.692;12.844;2022-11-25T10:59:35;8.90;72.00
69382;DHT22;56560;50.692;12.844;2022-11-25T11:02:20;8.90;71.80
69382;DHT22;56560;50.692;12.844;2022-11-25T11:04:57;8.90;71.30
69382;DHT22;56560;50.692;12.844;2022-11-25T11:07:24;8.80;71.90
69382;DHT22;56560;50.692;12.844;2022-11-25T11:09:50;8.80;72.50
69382;DHT22;56560;50.692;12.844;2022-11-25T11:12:25;8.80;72.30
69382;DHT22;56560;50.692;12.844;2022-11-25T11:14:53;8.90;73.30
69382;DHT22;56560;50.692;12.844;2022-11-25T11:17:37;8.90;72.20
69382;DHT22;56560;50.692;12.844;2022-11-25T11:20:24;9.00;72.30
69382;DHT22;56560;50.692;12.844;2022-11-25T11:23:06;9.00;72.00
69382;DHT22;56560;50.692;12.844;2022-11-25T11:25:35;8.90;71.30
69382;DHT22;56560;50.692;12.844;2022-11-25T11:28:04;9.10;71.60
69382;DHT22;56560;50.692;12.844;2022-11-25T11:31:21;9.20;71.00
69382;DHT22;56560;50.692;12.844;2022-11-25T11:39:00;10.00;69.20
69382;DHT22;56560;50.692;12.844;2022-11-25T11:44:12;10.00;66.80
69382;DHT22;56560;50.692;12.844;2022-11-25T11:54:45;9.30;69.40
69382;DHT22;56560;50.692;12.844;2022-11-25T12:00:03;9.50;68.80
69382;DHT22;56560;50.692;12.844;2022-11-25T12:02:37;9.70;68.00
69382;DHT22;56560;50.692;12.844;2022-11-25T12:10:24;9.70;65.50
69382;DHT22;56560;50.692;12.844;2022-11-25T12:13:14;9.80;66.50
69382;DHT22;56560;50.692;12.844;2022-11-25T12:18:54;9.90;65.10
69382;DHT22;56560;50.692;12.844;2022-11-25T12:27:17;11.80;59.40
69382;DHT22;56560;50.692;12.844;2022-11-25T12:30:02;12.20;57.80
69382;DHT22;56560;50.692;12.844;2022-11-25T12:32:51;12.20;57.70
69382;DHT22;56560;50.692;12.844;2022-11-25T12:38:29;11.40;60.10
69382;DHT22;56560;50.692;12.844;2022-11-25T12:48:49;10.90;60.50
69382;DHT22;56560;50.692;12.844;2022-11-25T12:51:35;10.60;62.20
69382;DHT22;56560;50.692;12.844;2022-11-25T13:03:11;9.80;64.50
69382;DHT22;56560;50.692;12.844;2022-11-25T13:16:28;9.00;68.00
69382;DHT22;56560;50.692;12.844;2022-11-25T13:18:54;9.00;67.80
69382;DHT22;56560;50.692;12.844;2022-11-25T13:21:20;9.00;66.90
69382;DHT22;56560;50.692;12.844;2022-11-25T13:23:53;8.90;67.10
69382;DHT22;56560;50.692;12.844;2022-11-25T13:31:59;9.10;66.90
69382;DHT22;56560;50.692;12.844;2022-11-25T13:36:55;9.40;66.90
69382;DHT22;56560;50.692;12.844;2022-11-25T13:39:30;9.90;65.60
69382;DHT22;56560;50.692;12.844;2022-11-25T13:42:20;10.30;64.60
69382;DHT22;56560;50.692;12.844;2022-11-25T13:44:54;10.50;63.40
69382;DHT22;56560;50.692;12.844;2022-11-25T13:54:51;10.60;63.80
69382;DHT22;56560;50.692;12.844;2022-11-25T13:57:24;10.40;63.80
69382;DHT22;56560;50.692;12.844;2022-11-25T14:00:05;10.30;64.50
69382;DHT22;56560;50.692;12.844;2022-11-25T14:02:34;10.20;64.50
69382;DHT22;56560;50.692;12.844;2022-11-25T14:10:44;9.80;65.40
69382;DHT22;56560;50.692;12.844;2022-11-25T14:19:05;9.30;67.00
69382;DHT22;56560;50.692;12.844;2022-11-25T14:24:42;9.10;68.80
69382;DHT22;56560;50.692;12.844;2022-11-25T14:27:23;9.00;69.40
69382;DHT22;56560;50.692;12.844;2022-11-25T14:30:06;8.90;69.70
69382;DHT22;56560;50.692;12.844;2022-11-25T14:32:37;8.80;70.00
69382;DHT22;56560;50.692;12.844;2022-11-25T14:35:12;8.70;70.70
69382;DHT22;56560;50.692;12.844;2022-11-25T14:37:55;8.70;70.90
69382;DHT22;56560;50.692;12.844;2022-11-25T14:40:36;8.60;70.20
69382;DHT22;56560;50.692;12.844;2022-11-25T14:43:06;8.60;70.80
69382;DHT22;56560;50.692;12.844;2022-11-25T14:45:33;8.50;70.70
69382;DHT22;56560;50.692;12.844;2022-11-25T14:48:16;8.40;70.80
69382;DHT22;56560;50.692;12.844;2022-11-25T14:50:58;8.30;71.10
69382;DHT22;56560;50.692;12.844;2022-11-25T14:53:24;8.30;72.50
69382;DHT22;56560;50.692;12.844;2022-11-25T14:55:51;8.20;73.40
69382;DHT22;56560;50.692;12.844;2022-11-25T14:58:18;8.10;73.10
69382;DHT22;56560;50.692;12.844;2022-11-25T15:01:17;8.10;72.80
69382;DHT22;56560;50.692;12.844;2022-11-25T15:03:48;8.10;73.20
69382;DHT22;56560;50.692;12.844;2022-11-25T15:06:14;8.10;73.30
69382;DHT22;56560;50.692;12.844;2022-11-25T15:08:44;8.10;72.90
69382;DHT22;56560;50.692;12.844;2022-11-25T15:11:20;8.10;73.90
69382;DHT22;56560;50.692;12.844;2022-11-25T15:14:03;8.00;74.90
69382;DHT22;56560;50.692;12.844;2022-11-25T15:16:32;7.90;75.70
69382;DHT22;56560;50.692;12.844;2022-11-25T15:19:01;7.90;76.20
69382;DHT22;56560;50.692;12.844;2022-11-25T15:21:38;7.80;76.30
69382;DHT22;56560;50.692;12.844;2022-11-25T15:24:05;7.80;76.80
69382;DHT22;56560;50.692;12.844;2022-11-25T15:26:33;7.70;77.90
69382;DHT22;56560;50.692;12.844;2022-11-25T15:29:17;7.70;78.40
69382;DHT22;56560;50.692;12.844;2022-11-25T15:31:45;7.60;78.70
69382;DHT22;56560;50.692;12.844;2022-11-25T15:34:13;7.60;79.10
69382;DHT22;56560;50.692;12.844;2022-11-25T15:36:41;7.50;78.80
69382;DHT22;56560;50.692;12.844;2022-11-25T15:41:50;7.40;79.30
69382;DHT22;56560;50.692;12.844;2022-11-25T15:44:28;7.40;79.30
69382;DHT22;56560;50.692;12.844;2022-11-25T15:47:27;7.40;79.30
69382;DHT22;56560;50.692;12.844;2022-11-25T15:52:24;7.30;78.80
69382;DHT22;56560;50.692;12.844;2022-11-25T15:54:52;7.30;79.80
69382;DHT22;56560;50.692;12.844;2022-11-25T15:57:28;7.30;79.20
69382;DHT22;56560;50.692;12.844;2022-11-25T16:10:47;7.30;77.80
69382;DHT22;56560;50.692;12.844;2022-11-25T16:15:57;7.30;76.40
69382;DHT22;56560;50.692;12.844;2022-11-25T16:21:21;7.20;77.80
69382;DHT22;56560;50.692;12.844;2022-11-25T16:23:59;7.20;77.50
69382;DHT22;56560;50.692;12.844;2022-11-25T16:26:32;7.10;78.20
69382;DHT22;56560;50.692;12.844;2022-11-25T16:29:00;7.10;78.00
69382;DHT22;56560;50.692;12.844;2022-11-25T16:31:27;7.10;78.30
69382;DHT22;56560;50.692;12.844;2022-11-25T16:34:00;7.10;78.70
69382;DHT22;56560;50.692;12.844;2022-11-25T16:36:30;7.10;79.30
69382;DHT22;56560;50.692;12.844;2022-11-25T16:38:56;7.10;79.50
69382;DHT22;56560;50.692;12.844;2022-11-25T16:41:23;7.10;79.80
69382;DHT22;56560;50.692;12.844;2022-11-25T16:43:50;7.10;80.20
69382;DHT22;56560;50.692;12.844;2022-11-25T16:46:20;7.10;80.70
69382;DHT22;56560;50.692;12.844;2022-11-25T16:48:46;7.10;80.80
69382;DHT22;56560;50.692;12.844;2022-11-25T16:51:18;7.10;81.30
69382;DHT22;56560;50.692;12.844;2022-11-25T16:53:45;7.10;81.40
69382;DHT22;56560;50.692;12.844;2022-11-25T16:56:14;7.10;81.50
69382;DHT22;56560;50.692;12.844;2022-11-25T16:58:41;7.10;82.70
69382;DHT22;56560;50.692;12.844;2022-11-25T17:01:12;7.20;82.10
69382;DHT22;56560;50.692;12.844;2022-11-25T17:03:39;7.20;82.70
69382;DHT22;56560;50.692;12.844;2022-11-25T17:06:22;7.20;82.60
69382;DHT22;56560;50.692;12.844;2022-11-25T17:08:49;7.20;82.80
69382;DHT22;56560;50.692;12.844;2022-11-25T17:11:40;7.10;83.40
69382;DHT22;56560;50.692;12.844;2022-11-25T17:14:14;7.10;83.90
69382;DHT22;56560;50.692;12.844;2022-11-25T17:16:42;7.00;84.70
69382;DHT22;56560;50.692;12.844;2022-11-25T17:19:12;6.90;85.10
69382;DHT22;56560;50.692;12.844;2022-11-25T17:21:38;6.90;85.50
69382;DHT22;56560;50.692;12.844;2022-11-25T17:24:14;6.80;86.10
69382;DHT22;56560;50.692;12.844;2022-11-25T17:26:44;6.70;86.30
69382;DHT22;56560;50.692;12.844;2022-11-25T17:29:14;6.70;86.40
69382;DHT22;56560;50.692;12.844;2022-11-25T17:31:41;6.70;86.50
69382;DHT22;56560;50.692;12.844;2022-11-25T17:34:17;6.70;86.60
69382;DHT22;56560;50.692;12.844;2022-11-25T17:36:43;6.70;86.70
69382;DHT22;56560;50.692;12.844;2022-11-25T17:39:13;6.70;86.70
69382;DHT22;56560;50.692;12.844;2022-11-25T17:41:45;6.60;86.70
69382;DHT22;56560;50.692;12.844;2022-11-25T17:44:26;6.70;86.90
69382;DHT22;56560;50.692;12.844;2022-11-25T17:46:54;6.70;86.80
69382;DHT22;56560;50.692;12.844;2022-11-25T17:49:20;6.70;86.60
69382;DHT22;56560;50.692;12.844;2022-11-25T17:51:46;6.60;87.10
69382;DHT22;56560;50.692;12.844;2022-11-25T17:54:11;6.70;87.20
69382;DHT22;56560;50.692;12.844;2022-11-25T17:56:39;6.60;86.80
69382;DHT22;56560;50.692;12.844;2022-11-25T17:59:10;6.60;87.20
69382;DHT22;56560;50.692;12.844;2022-11-25T18:01:37;6.60;87.40
69382;DHT22;56560;50.692;12.844;2022-11-25T18:04:12;6.60;87.10
69382;DHT22;56560;50.692;12.844;2022-11-25T18:06:38;6.50;87.50
69382;DHT22;56560;50.692;12.844;2022-11-25T18:09:03;6.50;87.60
69382;DHT22;56560;50.692;12.844;2022-11-25T18:11:29;6.50;87.70
69382;DHT22;56560;50.692;12.844;2022-11-25T18:13:55;6.50;87.40
69382;DHT22;56560;50.692;12.844;2022-11-25T18:16:21;6.60;87.50
69382;DHT22;56560;50.692;12.844;2022-11-25T18:18:48;6.70;87.00